createdAt,value
2022-12-26T00:00:43.854Z,101490.45
2022-12-26T00:03:18.273Z,101481.59
2022-12-26T00:05:31.134Z,101483.45
2022-12-26T00:07:45.207Z,101492.85
2022-12-26T00:09:58.464Z,101497.41
2022-12-26T00:12:11.886Z,101514.66
2022-12-26T00:14:26.159Z,101526.40
2022-12-26T00:16:39.650Z,101538.62
2022-12-26T00:18:53.086Z,101553.77
2022-12-26T00:21:06.100Z,101554.44
2022-12-26T00:23:19.844Z,101547.06
2022-12-26T00:25:34.257Z,101535.17
2022-12-26T00:27:47.216Z,101538.34
2022-12-26T00:30:01.670Z,101535.08
2022-12-26T00:32:15.868Z,101537.11
2022-12-26T00:34:30.250Z,101538.19
2022-12-26T00:36:44.740Z,101542.38
2022-12-26T00:39:00.302Z,101543.11
2022-12-26T00:41:16.439Z,101535.27
2022-12-26T00:43:29.528Z,101528.54
2022-12-26T00:45:47.444Z,101511.44
2022-12-26T00:48:01.711Z,101499.42
2022-12-26T00:50:16.257Z,101510.65
2022-12-26T00:52:30.224Z,101507.66
2022-12-26T00:54:43.718Z,101502.73
2022-12-26T00:56:57.675Z,101513.96
2022-12-26T00:59:11.765Z,101537.86
2022-12-26T01:01:26.958Z,101544.73
2022-12-26T01:03:39.606Z,101554.11
2022-12-26T01:05:53.338Z,101568.41
2022-12-26T01:08:22.019Z,101580.83
2022-12-26T01:10:37.240Z,101596.71
2022-12-26T01:12:51.270Z,101594.66
2022-12-26T01:15:05.755Z,101590.23
2022-12-26T01:17:18.999Z,101583.72
2022-12-26T01:19:32.145Z,101567.45
2022-12-26T01:21:45.974Z,101566.02
2022-12-26T01:23:59.652Z,101566.31
2022-12-26T01:26:18.900Z,101558.79
2022-12-26T01:28:37.427Z,101550.40
2022-12-26T01:30:50.491Z,101532.70
2022-12-26T01:33:04.802Z,101503.56
2022-12-26T01:35:18.163Z,101510.19
2022-12-26T01:37:32.248Z,101513.48
2022-12-26T01:39:44.981Z,101528.84
2022-12-26T01:42:00.369Z,101524.80
2022-12-26T01:44:50.866Z,101527.22
2022-12-26T01:47:04.349Z,101528.52
2022-12-26T01:49:23.199Z,101546.48
2022-12-26T01:51:42.970Z,101543.70
2022-12-26T01:54:39.610Z,101541.79
2022-12-26T01:56:38.115Z,101546.73
2022-12-26T01:58:53.749Z,101513.65
2022-12-26T02:01:09.957Z,101519.87
2022-12-26T02:03:42.505Z,101532.26
2022-12-26T02:06:00.824Z,101529.52
2022-12-26T02:08:17.762Z,101512.02
2022-12-26T02:10:36.402Z,101523.67
2022-12-26T02:12:51.802Z,101539.42
2022-12-26T02:15:07.097Z,101535.96
2022-12-26T02:17:21.422Z,101544.22
2022-12-26T02:19:46.672Z,101544.52
2022-12-26T02:22:31.058Z,101536.79
2022-12-26T02:25:04.985Z,101522.20
2022-12-26T02:27:47.151Z,101511.49
2022-12-26T02:30:20.747Z,101509.14
2022-12-26T02:32:53.604Z,101510.73
2022-12-26T02:35:17.082Z,101526.41
2022-12-26T02:37:51.086Z,101542.81
2022-12-26T02:40:32.597Z,101529.75
2022-12-26T02:42:57.334Z,101518.33
2022-12-26T02:45:36.420Z,101498.89
2022-12-26T02:48:00.671Z,101495.09
2022-12-26T02:50:35.951Z,101476.75
2022-12-26T02:53:24.810Z,101469.83
2022-12-26T02:56:00.109Z,101451.70
2022-12-26T02:58:45.745Z,101435.17
2022-12-26T03:01:23.629Z,101432.38
2022-12-26T03:03:58.895Z,101410.63
2022-12-26T03:06:33.888Z,101401.80
2022-12-26T03:09:10.217Z,101393.42
2022-12-26T03:11:43.253Z,101380.84
2022-12-26T03:14:07.951Z,101409.88
2022-12-26T03:16:46.592Z,101427.31
2022-12-26T03:19:03.405Z,101466.61
2022-12-26T03:21:20.282Z,101444.44
2022-12-26T03:23:34.778Z,101430.65
2022-12-26T03:26:12.153Z,101446.62
2022-12-26T03:28:25.944Z,101475.20
2022-12-26T03:30:55.429Z,101490.51
2022-12-26T03:33:30.590Z,101501.04
2022-12-26T03:35:44.610Z,101503.99
2022-12-26T03:38:03.581Z,101477.77
2022-12-26T03:40:45.172Z,101452.77
2022-12-26T03:43:21.584Z,101440.52
2022-12-26T03:45:59.735Z,101467.15
2022-12-26T03:48:40.991Z,101500.14
2022-12-26T03:51:16.564Z,101496.07
2022-12-26T03:53:51.251Z,101490.00
2022-12-26T03:56:27.640Z,101468.56
2022-12-26T03:59:01.501Z,101432.08
2022-12-26T04:01:37.843Z,101430.72
2022-12-26T04:04:11.072Z,101436.38
2022-12-26T04:06:46.168Z,101453.83
2022-12-26T04:09:19.314Z,101455.05
2022-12-26T04:11:52.183Z,101444.15
2022-12-26T04:14:27.948Z,101420.77
2022-12-26T04:17:02.845Z,101428.04
2022-12-26T04:19:28.085Z,101423.46
2022-12-26T04:22:04.584Z,101414.31
2022-12-26T04:24:39.777Z,101404.20
2022-12-26T04:27:14.465Z,101405.79
2022-12-26T04:29:44.155Z,101415.19
2022-12-26T04:32:20.524Z,101407.06
2022-12-26T04:34:58.667Z,101398.80
2022-12-26T04:37:36.484Z,101410.14
2022-12-26T04:40:15.089Z,101408.59
2022-12-26T04:42:46.973Z,101412.63
2022-12-26T04:45:02.736Z,101405.64
2022-12-26T04:47:16.336Z,101404.71
2022-12-26T04:49:46.704Z,101407.09
2022-12-26T04:52:01.935Z,101390.75
2022-12-26T04:54:15.445Z,101391.26
2022-12-26T04:56:28.678Z,101389.83
2022-12-26T04:58:42.778Z,101389.20
2022-12-26T05:01:16.750Z,101381.16
2022-12-26T05:03:47.814Z,101370.36
2022-12-26T05:06:19.095Z,101371.63
2022-12-26T05:08:52.717Z,101363.33
2022-12-26T05:11:06.517Z,101347.08
2022-12-26T05:13:20.608Z,101336.62
2022-12-26T05:15:53.978Z,101331.30
2022-12-26T05:18:24.634Z,101324.78
2022-12-26T05:20:54.630Z,101318.08
2022-12-26T05:23:27.553Z,101334.35
2022-12-26T05:26:01.285Z,101335.33
2022-12-26T05:28:33.056Z,101343.16
2022-12-26T05:30:47.950Z,101343.80
2022-12-26T05:33:17.941Z,101340.16
2022-12-26T05:35:32.414Z,101329.80
2022-12-26T05:37:46.360Z,101327.06
2022-12-26T05:39:59.465Z,101321.80
2022-12-26T05:42:13.494Z,101311.52
2022-12-26T05:44:27.438Z,101316.81
2022-12-26T05:46:43.523Z,101324.27
2022-12-26T05:48:57.580Z,101324.92
2022-12-26T05:51:11.133Z,101324.73
2022-12-26T05:53:27.435Z,101318.31
2022-12-26T05:55:41.294Z,101311.50
2022-12-26T05:57:53.894Z,101308.36
2022-12-26T06:00:08.724Z,101299.94
2022-12-26T06:02:22.767Z,101286.12
2022-12-26T06:04:38.569Z,101291.45
2022-12-26T06:06:53.387Z,101292.05
2022-12-26T06:09:07.656Z,101295.45
2022-12-26T06:11:22.673Z,101288.88
2022-12-26T06:13:35.692Z,101277.15
2022-12-26T06:15:48.748Z,101284.39
2022-12-26T06:18:02.791Z,101280.83
2022-12-26T06:20:18.065Z,101277.36
2022-12-26T06:22:31.985Z,101270.23
2022-12-26T06:24:44.650Z,101266.14
2022-12-26T06:26:59.613Z,101280.13
2022-12-26T06:29:13.333Z,101277.73
2022-12-26T06:31:28.353Z,101275.80
2022-12-26T06:33:42.221Z,101277.27
2022-12-26T06:35:56.234Z,101270.75
2022-12-26T06:38:09.819Z,101260.58
2022-12-26T06:40:23.118Z,101263.56
2022-12-26T06:42:37.723Z,101281.83
2022-12-26T06:44:51.285Z,101280.27
2022-12-26T06:47:04.830Z,101279.20
2022-12-26T06:49:18.435Z,101283.67
2022-12-26T06:51:32.589Z,101271.80
2022-12-26T06:53:48.059Z,101251.71
2022-12-26T06:56:11.769Z,101228.70
2022-12-26T06:58:24.956Z,101236.64
2022-12-26T07:00:38.959Z,101249.06
2022-12-26T07:02:55.463Z,101255.70
2022-12-26T07:05:09.305Z,101246.39
2022-12-26T07:07:22.587Z,101245.39
2022-12-26T07:09:36.698Z,101254.23
2022-12-26T07:11:53.141Z,101264.20
2022-12-26T07:14:06.409Z,101245.25
2022-12-26T07:16:20.036Z,101243.83
2022-12-26T07:18:34.448Z,101238.30
2022-12-26T07:20:49.105Z,101237.46
2022-12-26T07:23:02.259Z,101240.48
2022-12-26T07:25:17.150Z,101240.46
2022-12-26T07:27:30.784Z,101243.96
2022-12-26T07:29:44.720Z,101250.92
2022-12-26T07:31:59.280Z,101245.59
2022-12-26T07:34:13.486Z,101240.55
2022-12-26T07:36:28.224Z,101237.23
2022-12-26T07:38:40.938Z,101236.53
2022-12-26T07:40:54.121Z,101235.40
2022-12-26T07:43:07.440Z,101228.00
2022-12-26T07:45:21.261Z,101228.39
2022-12-26T07:47:35.391Z,101229.54
2022-12-26T07:49:48.382Z,101234.61
2022-12-26T07:52:01.297Z,101229.02
2022-12-26T07:54:14.075Z,101223.66
2022-12-26T07:56:28.052Z,101230.50
2022-12-26T07:58:42.171Z,101238.76
2022-12-26T08:00:55.859Z,101224.95
2022-12-26T08:03:12.830Z,101232.14
2022-12-26T08:05:26.929Z,101218.98
2022-12-26T08:07:40.881Z,101200.65
2022-12-26T08:09:54.356Z,101189.05
2022-12-26T08:12:08.067Z,101164.95
2022-12-26T08:14:21.550Z,101169.13
2022-12-26T08:16:35.563Z,101168.59
2022-12-26T08:18:49.798Z,101135.86
2022-12-26T08:21:04.100Z,101142.12
2022-12-26T08:23:17.624Z,101135.29
2022-12-26T08:25:30.770Z,101136.66
2022-12-26T08:27:43.870Z,101119.75
2022-12-26T08:29:59.397Z,101123.52
2022-12-26T08:32:12.388Z,101125.90
2022-12-26T08:34:25.984Z,101121.06
2022-12-26T08:36:40.335Z,101119.82
2022-12-26T08:38:53.389Z,101125.54
2022-12-26T08:41:06.431Z,101127.38
2022-12-26T08:43:34.859Z,101136.81
2022-12-26T08:46:02.068Z,101110.39
2022-12-26T08:48:16.416Z,101107.55
2022-12-26T08:50:30.567Z,101113.94
2022-12-26T08:52:45.102Z,101130.11
2022-12-26T08:54:57.820Z,101120.42
2022-12-26T08:57:11.834Z,101136.83
2022-12-26T08:59:25.765Z,101119.94
2022-12-26T09:01:39.939Z,101106.33
2022-12-26T09:03:55.518Z,101093.77
2022-12-26T09:06:09.929Z,101085.91
2022-12-26T09:08:23.492Z,101082.26
2022-12-26T09:10:37.806Z,101065.88
2022-12-26T09:12:50.248Z,101050.33
2022-12-26T09:15:03.212Z,101049.08
2022-12-26T09:17:17.424Z,101046.92
2022-12-26T09:19:33.609Z,101050.28
2022-12-26T09:21:48.411Z,101032.25
2022-12-26T09:24:06.304Z,101038.23
2022-12-26T09:26:21.232Z,101037.80
2022-12-26T09:28:34.301Z,101024.79
2022-12-26T09:30:49.654Z,101002.10
2022-12-26T09:33:05.280Z,101009.13
2022-12-26T09:35:19.997Z,101001.35
2022-12-26T09:37:33.258Z,100990.44
2022-12-26T09:39:47.292Z,100996.94
2022-12-26T09:42:12.294Z,100991.65
2022-12-26T09:44:32.023Z,100988.50
2022-12-26T09:46:54.693Z,100994.29
2022-12-26T09:49:12.286Z,100998.13
2022-12-26T09:51:27.083Z,100985.37
2022-12-26T09:53:45.277Z,100986.24
2022-12-26T09:56:02.101Z,100979.89
2022-12-26T09:58:25.092Z,100966.33
2022-12-26T10:00:42.719Z,100956.63
2022-12-26T10:02:58.857Z,100954.20
2022-12-26T10:05:16.917Z,100958.48
2022-12-26T10:07:39.057Z,100950.89
2022-12-26T10:10:01.712Z,100942.97
2022-12-26T10:12:29.463Z,100950.80
2022-12-26T10:14:51.378Z,100939.37
2022-12-26T10:17:15.923Z,100943.10
2022-12-26T10:19:47.975Z,100941.02
2022-12-26T10:22:09.105Z,100935.35
2022-12-26T10:24:25.739Z,100921.77
2022-12-26T10:26:43.409Z,100921.63
2022-12-26T10:29:03.267Z,100924.76
2022-12-26T10:31:22.527Z,100919.09
2022-12-26T10:33:46.572Z,100934.51
2022-12-26T10:36:00.682Z,100939.56
2022-12-26T10:38:27.516Z,100933.73
2022-12-26T10:40:46.352Z,100923.71
2022-12-26T10:43:03.642Z,100935.09
2022-12-26T10:45:24.451Z,100935.89
2022-12-26T10:47:41.303Z,100925.67
2022-12-26T10:49:55.550Z,100910.67
2022-12-26T10:52:09.765Z,100911.14
2022-12-26T10:54:24.591Z,100913.05
2022-12-26T10:56:38.519Z,100938.12
2022-12-26T10:58:55.897Z,100927.05
2022-12-26T11:01:40.542Z,100928.18
2022-12-26T11:04:00.202Z,100954.48
2022-12-26T11:06:13.700Z,100939.89
2022-12-26T11:08:35.045Z,100942.77
2022-12-26T11:11:04.885Z,100948.20
2022-12-26T11:13:25.250Z,100948.69
2022-12-26T11:15:42.196Z,100946.52
2022-12-26T11:18:09.692Z,100971.98
2022-12-26T11:20:38.940Z,100952.64
2022-12-26T11:22:54.489Z,100968.38
2022-12-26T11:25:22.305Z,100962.05
2022-12-26T11:27:36.229Z,100948.95
2022-12-26T11:29:49.088Z,100952.94
2022-12-26T11:32:05.373Z,100956.31
2022-12-26T11:34:37.207Z,100949.69
2022-12-26T11:36:54.726Z,100975.61
2022-12-26T11:39:10.719Z,100977.61
2022-12-26T11:41:40.946Z,100947.89
2022-12-26T11:43:55.907Z,100945.45
2022-12-26T11:46:08.810Z,100949.00
2022-12-26T11:48:28.484Z,100956.47
2022-12-26T11:50:50.742Z,100951.90
2022-12-26T11:53:18.673Z,100922.45
2022-12-26T11:55:38.196Z,100916.77
2022-12-26T11:58:03.126Z,100912.08
2022-12-26T12:00:25.871Z,100922.90
2022-12-26T12:02:41.008Z,100905.64
2022-12-26T12:04:56.785Z,100886.92
2022-12-26T12:07:19.360Z,100892.44
2022-12-26T12:09:44.869Z,100887.87
2022-12-26T12:12:06.686Z,100890.27
2022-12-26T12:14:32.160Z,100875.11
2022-12-26T12:16:56.024Z,100864.27
2022-12-26T12:19:23.591Z,100868.23
2022-12-26T12:21:46.114Z,100886.86
2022-12-26T12:24:24.025Z,100882.75
2022-12-26T12:26:43.212Z,100876.09
2022-12-26T12:29:22.642Z,100873.52
2022-12-26T12:31:47.340Z,100864.93
2022-12-26T12:34:11.043Z,100866.10
2022-12-26T12:36:32.503Z,100852.38
2022-12-26T12:39:03.188Z,100857.94
2022-12-26T12:41:35.705Z,100851.20
2022-12-26T12:43:57.331Z,100844.94
2022-12-26T12:46:21.035Z,100843.90
2022-12-26T12:48:57.669Z,100849.38
2022-12-26T12:51:22.449Z,100837.70
2022-12-26T12:53:54.981Z,100847.04
2022-12-26T12:56:19.972Z,100840.75
2022-12-26T12:58:41.231Z,100814.36
2022-12-26T13:01:02.501Z,100830.01
2022-12-26T13:03:22.580Z,100816.14
2022-12-26T13:05:45.671Z,100821.23
2022-12-26T13:08:05.523Z,100811.96
2022-12-26T13:10:25.046Z,100833.73
2022-12-26T13:12:41.437Z,100819.29
2022-12-26T13:14:59.652Z,100820.20
2022-12-26T13:17:23.916Z,100813.63
2022-12-26T13:19:50.034Z,100806.12
2022-12-26T13:22:10.567Z,100822.70
2022-12-26T13:24:29.406Z,100816.23
2022-12-26T13:26:45.811Z,100808.90
2022-12-26T13:29:03.877Z,100797.14
2022-12-26T13:31:16.858Z,100805.43
2022-12-26T13:33:31.002Z,100822.13
2022-12-26T13:36:02.181Z,100793.48
2022-12-26T13:38:16.763Z,100817.09
2022-12-26T13:40:34.495Z,100805.64
2022-12-26T13:43:10.366Z,100821.13
2022-12-26T13:45:57.648Z,100832.55
2022-12-26T13:48:48.290Z,100818.10
2022-12-26T13:51:03.321Z,100845.39
2022-12-26T13:53:34.197Z,100820.77
2022-12-26T13:55:51.428Z,100822.80
2022-12-26T13:58:32.850Z,100813.41
2022-12-26T14:00:52.418Z,100811.64
2022-12-26T14:03:37.199Z,100817.30
2022-12-26T14:06:15.903Z,100824.23
2022-12-26T14:08:40.547Z,100835.95
2022-12-26T14:11:05.985Z,100825.55
2022-12-26T14:13:41.414Z,100828.69
2022-12-26T14:16:01.249Z,100826.15
2022-12-26T14:18:36.062Z,100833.66
2022-12-26T14:20:57.222Z,100824.14
2022-12-26T14:23:23.826Z,100819.88
2022-12-26T14:25:51.193Z,100831.64
2022-12-26T14:28:14.020Z,100835.77
2022-12-26T14:30:33.872Z,100829.96
2022-12-26T14:33:01.662Z,100812.59
2022-12-26T14:35:27.379Z,100807.98
2022-12-26T14:37:51.694Z,100812.84
2022-12-26T14:40:21.994Z,100808.48
2022-12-26T14:43:15.477Z,100790.52
2022-12-26T14:45:50.034Z,100806.13
2022-12-26T14:48:03.213Z,100820.86
2022-12-26T14:50:44.526Z,100790.56
2022-12-26T14:52:58.745Z,100796.14
2022-12-26T14:55:45.108Z,100772.67
2022-12-26T14:57:59.916Z,100768.94
2022-12-26T15:00:29.057Z,100762.55
2022-12-26T15:02:46.470Z,100771.77
2022-12-26T15:05:17.676Z,100785.25
2022-12-26T15:08:03.090Z,100787.90
2022-12-26T15:10:57.830Z,100773.45
2022-12-26T15:13:52.163Z,100784.81
2022-12-26T15:16:34.176Z,100773.52
2022-12-26T15:19:34.637Z,100780.80
2022-12-26T15:22:12.165Z,100778.52
2022-12-26T15:27:51.103Z,100782.05
2022-12-26T15:30:24.210Z,100775.64
2022-12-26T15:32:41.290Z,100787.02
2022-12-26T15:35:14.735Z,100784.22
2022-12-26T15:37:43.199Z,100778.66
2022-12-26T15:40:02.881Z,100787.09
2022-12-26T15:42:37.147Z,100763.17
2022-12-26T15:44:58.038Z,100755.40
2022-12-26T15:47:22.406Z,100752.64
2022-12-26T15:49:57.006Z,100753.06
2022-12-26T15:52:21.353Z,100748.42
2022-12-26T15:55:02.751Z,100754.02
2022-12-26T15:57:24.098Z,100747.11
2022-12-26T16:00:06.466Z,100749.30
2022-12-26T16:02:50.463Z,100741.02
2022-12-26T16:05:17.798Z,100739.21
2022-12-26T16:07:40.835Z,100735.05
2022-12-26T16:09:56.185Z,100732.44
2022-12-26T16:12:30.090Z,100730.06
2022-12-26T16:14:46.257Z,100725.00
2022-12-26T16:17:14.721Z,100728.11
2022-12-26T16:19:30.159Z,100727.63
2022-12-26T16:22:00.597Z,100727.30
2022-12-26T16:24:20.547Z,100732.92
2022-12-26T16:26:44.104Z,100722.30
2022-12-26T16:28:58.506Z,100729.05
2022-12-26T16:31:12.361Z,100726.84
2022-12-26T16:33:25.343Z,100722.00
2022-12-26T16:35:42.836Z,100729.01
2022-12-26T16:37:58.331Z,100724.91
2022-12-26T16:40:33.595Z,100732.04
2022-12-26T16:42:49.390Z,100725.48
2022-12-26T16:45:05.018Z,100730.60
2022-12-26T16:47:19.948Z,100724.25
2022-12-26T16:49:34.868Z,100723.91
2022-12-26T16:51:52.699Z,100723.23
2022-12-26T16:54:21.476Z,100720.22
2022-12-26T16:56:37.500Z,100729.66
2022-12-26T16:58:53.162Z,100731.63
2022-12-26T17:01:13.278Z,100731.61
2022-12-26T17:03:33.136Z,100739.27
2022-12-26T17:05:50.226Z,100740.39
2022-12-26T17:08:06.326Z,100743.96
2022-12-26T17:10:28.200Z,100740.00
2022-12-26T17:12:43.070Z,100741.80
2022-12-26T17:14:58.812Z,100744.61
2022-12-26T17:17:30.495Z,100752.73
2022-12-26T17:19:46.630Z,100749.34
2022-12-26T17:22:35.272Z,100749.77
2022-12-26T17:24:50.399Z,100740.40
2022-12-26T17:27:24.373Z,100739.31
2022-12-26T17:29:54.696Z,100737.96
2022-12-26T17:32:12.673Z,100728.58
2022-12-26T17:34:29.825Z,100725.84
2022-12-26T17:37:18.006Z,100731.81
2022-12-26T17:39:26.701Z,100725.80
2022-12-26T17:41:44.485Z,100729.84
2022-12-26T17:43:58.924Z,100729.16
2022-12-26T17:46:15.617Z,100729.80
2022-12-26T17:48:28.754Z,100732.55
2022-12-26T17:50:46.440Z,100738.70
2022-12-26T17:53:07.117Z,100744.71
2022-12-26T17:55:30.298Z,100752.29
2022-12-26T17:57:43.469Z,100749.63
2022-12-26T17:59:57.350Z,100752.17
2022-12-26T18:02:13.293Z,100759.89
2022-12-26T18:04:27.303Z,100752.86
2022-12-26T18:06:41.609Z,100757.91
2022-12-26T18:08:54.812Z,100755.10
2022-12-26T18:11:10.285Z,100756.96
2022-12-26T18:13:24.301Z,100760.81
2022-12-26T18:15:39.361Z,100752.75
2022-12-26T18:17:54.115Z,100750.02
2022-12-26T18:20:07.782Z,100745.28
2022-12-26T18:22:22.624Z,100739.48
2022-12-26T18:24:35.489Z,100733.88
2022-12-26T18:26:49.798Z,100731.64
2022-12-26T18:29:02.994Z,100735.75
2022-12-26T18:31:20.292Z,100727.80
2022-12-26T18:33:33.534Z,100730.35
2022-12-26T18:35:49.023Z,100727.83
2022-12-26T18:38:02.248Z,100726.04
2022-12-26T18:40:30.819Z,100728.33
2022-12-26T18:42:44.159Z,100717.46
2022-12-26T18:44:58.140Z,100712.71
2022-12-26T18:47:12.934Z,100702.71
2022-12-26T18:49:26.956Z,100702.80
2022-12-26T18:51:40.929Z,100698.09
2022-12-26T18:53:54.432Z,100691.44
2022-12-26T18:56:08.820Z,100686.19
2022-12-26T18:58:21.928Z,100675.88
2022-12-26T19:00:35.144Z,100656.70
2022-12-26T19:02:48.529Z,100660.20
2022-12-26T19:05:02.170Z,100653.52
2022-12-26T19:07:17.395Z,100642.76
2022-12-26T19:09:31.298Z,100637.34
2022-12-26T19:11:45.065Z,100627.97
2022-12-26T19:13:58.919Z,100621.98
2022-12-26T19:16:13.202Z,100616.79
2022-12-26T19:18:26.199Z,100613.10
2022-12-26T19:20:44.107Z,100604.27
2022-12-26T19:22:58.864Z,100600.29
2022-12-26T19:25:13.483Z,100589.48
2022-12-26T19:27:26.697Z,100585.15
2022-12-26T19:29:41.506Z,100579.59
2022-12-26T19:31:57.421Z,100571.14
2022-12-26T19:34:11.672Z,100569.20
2022-12-26T19:36:25.691Z,100570.50
2022-12-26T19:38:39.843Z,100559.91
2022-12-26T19:40:52.842Z,100557.85
2022-12-26T19:43:06.815Z,100558.59
2022-12-26T19:45:21.348Z,100553.64
2022-12-26T19:47:35.587Z,100550.70
2022-12-26T19:49:49.112Z,100551.97
2022-12-26T19:52:02.251Z,100548.48
2022-12-26T19:54:15.941Z,100536.27
2022-12-26T19:56:31.881Z,100535.98
2022-12-26T19:58:45.973Z,100527.88
2022-12-26T20:01:08.096Z,100526.20
2022-12-26T20:03:21.142Z,100525.81
2022-12-26T20:05:35.206Z,100520.46
2022-12-26T20:07:48.312Z,100522.60
2022-12-26T20:10:02.369Z,100520.95
2022-12-26T20:12:16.405Z,100520.03
2022-12-26T20:14:30.482Z,100510.13
2022-12-26T20:19:19.984Z,100500.36
2022-12-26T20:21:33.338Z,100504.57
2022-12-26T20:23:47.631Z,100501.70
2022-12-26T20:26:01.295Z,100504.60
2022-12-26T20:28:15.310Z,100498.73
2022-12-26T20:30:29.060Z,100496.67
2022-12-26T20:32:47.767Z,100493.45
2022-12-26T20:35:01.598Z,100494.88
2022-12-26T20:37:16.278Z,100490.38
2022-12-26T20:39:33.019Z,100491.27
2022-12-26T20:41:46.190Z,100483.13
2022-12-26T20:43:59.801Z,100479.27
2022-12-26T20:46:16.752Z,100475.33
2022-12-26T20:48:30.241Z,100468.22
2022-12-26T20:50:43.219Z,100461.14
2022-12-26T20:52:57.028Z,100455.98
2022-12-26T20:55:11.081Z,100450.05
2022-12-26T20:57:26.194Z,100437.15
2022-12-26T20:59:40.577Z,100437.05
2022-12-26T21:01:53.842Z,100423.48
2022-12-26T21:04:07.591Z,100419.96
2022-12-26T21:06:21.594Z,100424.79
2022-12-26T21:08:35.507Z,100418.05
2022-12-26T21:10:50.039Z,100419.69
2022-12-26T21:13:04.486Z,100409.60
2022-12-26T21:15:18.661Z,100388.60
2022-12-26T21:17:32.717Z,100383.73
2022-12-26T21:19:46.388Z,100383.42
2022-12-26T21:22:01.221Z,100364.23
2022-12-26T21:24:18.155Z,100354.31
2022-12-26T21:26:31.688Z,100342.94
2022-12-26T21:28:45.939Z,100335.69
2022-12-26T21:31:00.674Z,100327.53
2022-12-26T21:33:14.877Z,100316.20
2022-12-26T21:35:28.896Z,100307.58
2022-12-26T21:37:52.649Z,100309.89
2022-12-26T21:40:07.015Z,100271.25
2022-12-26T21:42:20.251Z,100283.86
2022-12-26T21:44:33.866Z,100275.96
2022-12-26T21:46:47.145Z,100249.06
2022-12-26T21:49:02.121Z,100260.66
2022-12-26T21:51:15.872Z,100250.73
2022-12-26T21:53:28.811Z,100236.22
2022-12-26T21:55:43.356Z,100233.60
2022-12-26T21:57:57.480Z,100226.89
2022-12-26T22:00:13.499Z,100216.85
2022-12-26T22:02:42.888Z,100200.02
2022-12-26T22:04:56.247Z,100192.77
2022-12-26T22:07:09.797Z,100182.84
2022-12-26T22:09:24.031Z,100176.21
2022-12-26T22:11:54.763Z,100180.00
2022-12-26T22:14:09.139Z,100200.19
2022-12-26T22:16:23.039Z,100191.38
2022-12-26T22:18:37.592Z,100175.48
2022-12-26T22:20:50.203Z,100169.92
2022-12-26T22:23:04.924Z,100161.23
2022-12-26T22:25:20.020Z,100149.54
2022-12-26T22:27:33.202Z,100138.52
2022-12-26T22:29:47.330Z,100127.55
2022-12-26T22:32:01.633Z,100115.65
2022-12-26T22:34:17.383Z,100121.67
2022-12-26T22:36:31.126Z,100119.16
2022-12-26T22:38:44.612Z,100100.96
2022-12-26T22:41:02.925Z,100094.05
2022-12-26T22:43:16.062Z,100091.37
2022-12-26T22:45:29.997Z,100078.25
2022-12-26T22:47:44.245Z,100068.20
2022-12-26T22:49:58.175Z,100061.20
2022-12-26T22:52:15.902Z,100060.15
2022-12-26T22:54:31.065Z,100042.61
2022-12-26T22:56:44.057Z,100042.77
2022-12-26T22:59:01.503Z,100034.54
2022-12-26T23:01:21.869Z,100034.44
2022-12-26T23:03:35.134Z,100037.54
2022-12-26T23:05:50.298Z,100034.59
2022-12-26T23:08:05.070Z,100024.62
2022-12-26T23:10:27.341Z,100011.54
2022-12-26T23:12:47.159Z,100006.16
2022-12-26T23:15:01.200Z,99986.19
2022-12-26T23:17:40.778Z,99969.34
2022-12-26T23:20:12.529Z,99963.77
2022-12-26T23:22:27.992Z,99946.45
2022-12-26T23:24:42.765Z,99937.11
2022-12-26T23:27:18.717Z,99929.32
2022-12-26T23:29:49.436Z,99911.50
2022-12-26T23:32:04.604Z,99902.92
2022-12-26T23:34:18.934Z,99886.59
2022-12-26T23:36:32.522Z,99866.39
2022-12-26T23:38:46.332Z,99850.04
2022-12-26T23:41:00.508Z,99835.13
2022-12-26T23:43:14.663Z,99826.95
2022-12-26T23:45:28.573Z,99817.23
2022-12-26T23:47:44.863Z,99804.48
2022-12-26T23:49:57.816Z,99798.38
2022-12-26T23:52:11.927Z,99789.50
2022-12-26T23:54:26.259Z,99778.86
2022-12-26T23:56:40.962Z,99777.37
2022-12-26T23:58:54.223Z,99759.22
